createdAt,value
2016-10-25T00:00:22.732Z,925.49
2016-10-25T00:01:35.706Z,925.43
2016-10-25T00:02:49.266Z,925.51
2016-10-25T00:04:02.300Z,925.44
2016-10-25T00:05:15.276Z,925.48
2016-10-25T00:06:28.310Z,925.48
2016-10-25T00:07:41.908Z,925.55
2016-10-25T00:08:55.447Z,925.55
2016-10-25T00:10:08.379Z,925.5
2016-10-25T00:11:20.866Z,925.54
2016-10-25T00:12:33.367Z,925.53
2016-10-25T00:13:45.314Z,925.52
2016-10-25T00:14:58.324Z,925.52
2016-10-25T00:16:11.357Z,925.54
2016-10-25T00:17:24.892Z,925.57
2016-10-25T00:18:38.409Z,925.57
2016-10-25T00:19:50.869Z,925.62
2016-10-25T00:21:03.871Z,925.57
2016-10-25T00:22:15.828Z,925.65
2016-10-25T00:23:28.294Z,925.67
2016-10-25T00:24:41.305Z,925.67
2016-10-25T00:25:53.766Z,925.68
2016-10-25T00:27:07.255Z,925.68
2016-10-25T00:28:19.689Z,925.71
2016-10-25T00:29:32.708Z,925.72
2016-10-25T00:30:46.281Z,925.73
2016-10-25T00:31:59.760Z,925.76
2016-10-25T00:33:13.273Z,925.75
2016-10-25T00:34:25.727Z,925.74
2016-10-25T00:35:38.243Z,925.76
2016-10-25T00:36:50.161Z,925.72
2016-10-25T00:38:03.699Z,925.75
2016-10-25T00:39:16.656Z,925.73
2016-10-25T00:40:30.317Z,925.75
2016-10-25T00:41:42.824Z,925.7
2016-10-25T00:42:54.758Z,925.69
2016-10-25T00:44:07.762Z,925.74
2016-10-25T00:45:20.816Z,925.73
2016-10-25T00:46:32.239Z,925.76
2016-10-25T00:47:45.171Z,925.74
2016-10-25T00:48:58.138Z,925.74
2016-10-25T00:50:11.143Z,925.76
2016-10-25T00:51:23.086Z,925.79
2016-10-25T00:52:34.545Z,925.77
2016-10-25T00:53:47.546Z,925.73
2016-10-25T00:54:59.976Z,925.75
2016-10-25T00:56:13.484Z,925.78
2016-10-25T00:57:27.086Z,925.78
2016-10-25T00:58:40.039Z,925.83
2016-10-25T00:59:53.057Z,925.8
2016-10-25T01:01:06.004Z,925.8
2016-10-25T01:02:19.601Z,925.82
2016-10-25T01:03:33.141Z,925.81
2016-10-25T01:04:45.666Z,925.79
2016-10-25T01:05:58.151Z,925.77
2016-10-25T01:07:11.645Z,925.77
2016-10-25T01:08:25.200Z,925.75
2016-10-25T01:09:38.755Z,925.73
2016-10-25T01:10:51.734Z,925.72
2016-10-25T01:12:04.210Z,925.72
2016-10-25T01:13:16.684Z,925.73
2016-10-25T01:14:29.150Z,925.74
2016-10-25T01:15:42.189Z,925.75
2016-10-25T01:16:55.725Z,925.76
2016-10-25T01:18:07.603Z,925.79
2016-10-25T01:19:19.597Z,925.77
2016-10-25T01:20:32.611Z,925.82
2016-10-25T01:21:46.203Z,925.83
2016-10-25T01:22:59.766Z,925.87
2016-10-25T01:24:12.802Z,925.87
2016-10-25T01:25:26.298Z,925.84
2016-10-25T01:26:39.242Z,925.88
2016-10-25T01:27:51.699Z,925.89
2016-10-25T01:29:04.720Z,925.89
2016-10-25T01:30:17.678Z,925.89
2016-10-25T01:31:30.190Z,925.94
2016-10-25T01:32:43.710Z,925.95
2016-10-25T01:33:55.665Z,925.98
2016-10-25T01:35:08.665Z,926
2016-10-25T01:36:21.168Z,926.02
2016-10-25T01:37:34.133Z,926
2016-10-25T01:38:47.599Z,925.95
2016-10-25T01:40:01.128Z,925.98
2016-10-25T01:41:14.162Z,925.98
2016-10-25T01:42:27.165Z,926.03
2016-10-25T01:43:40.187Z,925.99
2016-10-25T01:44:53.765Z,925.99
2016-10-25T01:46:06.820Z,925.98
2016-10-25T01:47:19.885Z,925.97
2016-10-25T01:48:32.354Z,925.93
2016-10-25T01:49:44.826Z,925.93
2016-10-25T01:50:55.759Z,925.98
2016-10-25T01:52:08.217Z,925.96
2016-10-25T01:53:21.199Z,925.96
2016-10-25T01:54:33.686Z,925.95
2016-10-25T01:55:46.632Z,925.92
2016-10-25T01:57:00.144Z,925.92
2016-10-25T01:58:13.779Z,925.92
2016-10-25T02:01:38.162Z,925.87
2016-10-25T02:02:50.635Z,925.84
2016-10-25T02:04:03.122Z,925.86
2016-10-25T02:05:16.657Z,925.84
2016-10-25T02:06:29.661Z,925.8
2016-10-25T02:07:42.689Z,925.77
2016-10-25T02:08:55.230Z,925.78
2016-10-25T02:10:07.215Z,925.7
2016-10-25T02:11:20.285Z,925.62
2016-10-25T02:12:33.887Z,925.56
2016-10-25T02:13:46.866Z,925.53
2016-10-25T02:16:02.156Z,925.45
2016-10-25T02:17:15.788Z,925.43
2016-10-25T02:18:28.853Z,925.4
2016-10-25T02:19:40.864Z,925.36
2016-10-25T02:20:54.494Z,925.4
2016-10-25T02:22:06.995Z,925.37
2016-10-25T02:23:20.059Z,925.34
2016-10-25T02:24:32.611Z,925.31
2016-10-25T02:25:46.140Z,925.35
2016-10-25T02:26:59.224Z,925.31
2016-10-25T02:28:12.297Z,925.36
2016-10-25T02:29:25.317Z,925.37
2016-10-25T02:30:38.898Z,925.43
2016-10-25T02:31:51.938Z,925.4
2016-10-25T02:33:05.559Z,925.43
2016-10-25T02:34:18.653Z,925.42
2016-10-25T02:35:31.772Z,925.4
2016-10-25T02:36:45.421Z,925.42
2016-10-25T02:37:57.985Z,925.4
2016-10-25T02:39:10.492Z,925.38
2016-10-25T02:40:22.464Z,925.35
2016-10-25T02:41:34.976Z,925.36
2016-10-25T02:42:48.610Z,925.34
2016-10-25T02:44:01.670Z,925.35
2016-10-25T02:45:14.793Z,925.32
2016-10-25T02:46:27.856Z,925.31
2016-10-25T02:47:40.429Z,925.34
2016-10-25T02:48:53.494Z,925.34
2016-10-25T02:50:06.993Z,925.36
2016-10-25T02:51:20.616Z,925.39
2016-10-25T02:52:33.704Z,925.42
2016-10-25T02:53:46.195Z,925.44
2016-10-25T02:54:59.750Z,925.43
2016-10-25T02:56:12.855Z,925.44
2016-10-25T02:57:25.955Z,925.46
2016-10-25T02:58:39.061Z,925.41
2016-10-25T02:59:52.624Z,925.44
2016-10-25T03:01:05.127Z,925.44
2016-10-25T03:02:18.729Z,925.44
2016-10-25T03:03:31.829Z,925.42
2016-10-25T03:04:45.455Z,925.41
2016-10-25T03:05:59.106Z,925.42
2016-10-25T03:07:12.685Z,925.43
2016-10-25T03:08:25.231Z,925.43
2016-10-25T03:09:38.833Z,925.43
2016-10-25T03:10:51.346Z,925.47
2016-10-25T03:12:03.959Z,925.45
2016-10-25T03:13:17.558Z,925.48
2016-10-25T03:14:31.256Z,925.46
2016-10-25T03:15:44.315Z,925.48
2016-10-25T03:16:56.872Z,925.48
2016-10-25T03:18:10.423Z,925.51
2016-10-25T03:19:23.588Z,925.51
2016-10-25T03:20:36.727Z,925.51
2016-10-25T03:21:50.286Z,925.43
2016-10-25T03:23:02.848Z,925.44
2016-10-25T03:24:16.392Z,925.46
2016-10-25T03:25:28.957Z,925.45
2016-10-25T03:26:41.960Z,925.46
2016-10-25T03:27:55.498Z,925.46
2016-10-25T03:29:08.553Z,925.47
2016-10-25T03:32:04.020Z,925.46
2016-10-25T03:33:16.587Z,925.49
2016-10-25T03:34:30.170Z,925.53
2016-10-25T03:35:43.726Z,925.5
2016-10-25T03:36:57.334Z,925.49
2016-10-25T03:38:09.352Z,925.47
2016-10-25T03:39:22.408Z,925.45
2016-10-25T03:40:36.006Z,925.46
2016-10-25T03:41:49.123Z,925.47
2016-10-25T03:43:02.189Z,925.49
2016-10-25T03:44:15.214Z,925.48
2016-10-25T03:46:31.009Z,925.52
2016-10-25T03:47:43.441Z,925.51
2016-10-25T03:48:56.446Z,925.53
2016-10-25T03:50:09.020Z,925.5
2016-10-25T03:51:22.070Z,925.52
2016-10-25T03:52:34.052Z,925.53
2016-10-25T03:53:47.102Z,925.56
2016-10-25T03:55:00.655Z,925.55
2016-10-25T03:56:14.161Z,925.55
2016-10-25T03:57:26.617Z,925.58
2016-10-25T03:58:38.608Z,925.53
2016-10-25T03:59:51.641Z,925.5
2016-10-25T04:01:04.687Z,925.57
2016-10-25T04:02:16.638Z,925.53
2016-10-25T04:03:29.686Z,925.54
2016-10-25T04:04:42.224Z,925.52
2016-10-25T04:05:54.144Z,925.52
2016-10-25T04:07:07.152Z,925.49
2016-10-25T04:08:20.103Z,925.49
2016-10-25T04:09:33.166Z,925.45
2016-10-25T04:10:45.685Z,925.47
2016-10-25T04:11:58.751Z,925.48
2016-10-25T04:13:11.857Z,925.45
2016-10-25T04:14:25.376Z,925.46
2016-10-25T04:15:37.890Z,925.46
2016-10-25T04:16:51.456Z,925.47
2016-10-25T04:18:05.036Z,925.49
2016-10-25T04:19:18.675Z,925.43
2016-10-25T04:20:32.283Z,925.46
2016-10-25T04:21:44.823Z,925.45
2016-10-25T04:22:57.862Z,925.4
2016-10-25T04:24:10.957Z,925.41
2016-10-25T04:25:23.971Z,925.39
2016-10-25T04:26:37.616Z,925.34
2016-10-25T04:27:50.617Z,925.3
2016-10-25T04:29:03.156Z,925.3
2016-10-25T04:30:16.260Z,925.28
2016-10-25T04:31:29.891Z,925.25
2016-10-25T04:32:42.485Z,925.2
2016-10-25T04:33:56.079Z,925.2
2016-10-25T04:35:08.622Z,925.16
2016-10-25T04:36:20.683Z,925.16
2016-10-25T04:37:34.289Z,925.14
2016-10-25T04:38:47.841Z,925.14
2016-10-25T04:40:01.451Z,925.13
2016-10-25T04:41:14.473Z,925.1
2016-10-25T04:42:27.000Z,925.05
2016-10-25T04:43:40.109Z,925.06
2016-10-25T04:44:53.670Z,925.02
2016-10-25T04:46:07.240Z,925.03
2016-10-25T04:47:20.256Z,925
2016-10-25T04:48:32.737Z,925
2016-10-25T04:49:46.222Z,925
2016-10-25T04:50:58.689Z,924.99
2016-10-25T04:52:11.255Z,925.01
2016-10-25T04:53:24.759Z,924.97
2016-10-25T04:54:37.318Z,924.95
2016-10-25T04:55:50.370Z,924.93
2016-10-25T04:57:03.431Z,924.92
2016-10-25T04:58:17.010Z,924.91
2016-10-25T04:59:28.449Z,924.92
2016-10-25T05:00:41.490Z,924.94
2016-10-25T05:01:54.077Z,924.91
2016-10-25T05:03:06.583Z,924.91
2016-10-25T05:04:19.092Z,924.91
2016-10-25T05:05:32.145Z,924.87
2016-10-25T05:06:44.655Z,924.85
2016-10-25T05:07:57.193Z,924.85
2016-10-25T05:09:10.776Z,924.82
2016-10-25T05:10:24.401Z,924.81
2016-10-25T05:11:37.479Z,924.79
2016-10-25T05:12:50.052Z,924.81
2016-10-25T05:14:03.118Z,924.79
2016-10-25T05:15:15.103Z,924.77
2016-10-25T05:16:28.258Z,924.76
2016-10-25T05:17:39.647Z,924.72
2016-10-25T05:18:52.691Z,924.68
2016-10-25T05:20:05.810Z,924.64
2016-10-25T05:21:19.327Z,924.55
2016-10-25T05:22:32.398Z,924.51
2016-10-25T05:23:44.931Z,924.46
2016-10-25T05:24:58.029Z,924.46
2016-10-25T05:26:11.086Z,924.39
2016-10-25T05:27:23.565Z,924.35
2016-10-25T05:28:36.097Z,924.32
2016-10-25T05:29:49.112Z,924.27
2016-10-25T05:31:01.675Z,924.24
2016-10-25T05:32:14.719Z,924.16
2016-10-25T05:33:27.755Z,924.16
2016-10-25T05:34:40.805Z,924.16
2016-10-25T05:35:53.838Z,924.15
2016-10-25T05:37:07.405Z,924.15
2016-10-25T05:38:20.965Z,924.16
2016-10-25T05:39:34.557Z,924.17
2016-10-25T05:40:47.702Z,924.17
2016-10-25T05:42:01.244Z,924.16
2016-10-25T05:43:13.237Z,924.2
2016-10-25T05:44:26.301Z,924.21
2016-10-25T05:45:39.895Z,924.21
2016-10-25T05:46:53.013Z,924.24
2016-10-25T05:48:06.592Z,924.24
2016-10-25T05:49:19.164Z,924.3
2016-10-25T05:50:32.198Z,924.27
2016-10-25T05:51:45.717Z,924.29
2016-10-25T05:52:58.201Z,924.28
2016-10-25T05:54:11.755Z,924.32
2016-10-25T05:55:24.300Z,924.31
2016-10-25T05:56:37.399Z,924.33
2016-10-25T05:57:50.489Z,924.39
2016-10-25T05:59:04.033Z,924.42
2016-10-25T06:00:17.610Z,924.38
2016-10-25T06:01:30.709Z,924.4
2016-10-25T06:02:43.718Z,924.43
2016-10-25T06:03:56.265Z,924.47
2016-10-25T06:05:09.780Z,924.41
2016-10-25T06:06:22.811Z,924.47
2016-10-25T06:07:35.848Z,924.46
2016-10-25T06:08:47.869Z,924.44
2016-10-25T06:10:01.449Z,924.49
2016-10-25T06:11:13.992Z,924.48
2016-10-25T06:12:26.488Z,924.53
2016-10-25T06:13:39.016Z,924.51
2016-10-25T06:14:52.061Z,924.57
2016-10-25T06:16:05.077Z,924.56
2016-10-25T06:17:17.634Z,924.56
2016-10-25T06:18:30.696Z,924.63
2016-10-25T06:19:44.304Z,924.62
2016-10-25T06:20:56.871Z,924.61
2016-10-25T06:22:09.925Z,924.65
2016-10-25T06:23:22.027Z,924.64
2016-10-25T06:24:34.668Z,924.68
2016-10-25T06:25:47.253Z,924.7
2016-10-25T06:27:00.269Z,924.72
2016-10-25T06:28:13.277Z,924.78
2016-10-25T06:29:25.845Z,924.86
2016-10-25T06:30:38.850Z,924.91
2016-10-25T06:31:51.439Z,925.01
2016-10-25T06:33:04.470Z,925.08
2016-10-25T06:34:18.091Z,925.09
2016-10-25T06:35:31.143Z,925.12
2016-10-25T06:36:43.100Z,925.12
2016-10-25T06:37:56.620Z,925.08
2016-10-25T06:39:09.690Z,925
2016-10-25T06:40:22.228Z,924.99
2016-10-25T06:41:35.287Z,925.03
2016-10-25T06:42:47.834Z,925.06
2016-10-25T06:44:00.386Z,925.19
2016-10-25T06:45:13.485Z,925.24
2016-10-25T06:46:26.554Z,925.34
2016-10-25T06:47:40.112Z,925.36
2016-10-25T06:48:53.104Z,925.33
2016-10-25T06:50:05.063Z,925.29
2016-10-25T06:51:18.122Z,925.21
2016-10-25T06:52:31.651Z,925.18
2016-10-25T06:53:44.682Z,925.13
2016-10-25T06:54:57.205Z,925.1
2016-10-25T06:56:09.712Z,925.12
2016-10-25T06:57:22.770Z,925.17
2016-10-25T06:58:36.367Z,925.23
2016-10-25T06:59:49.371Z,925.22
2016-10-25T07:01:02.422Z,925.18
2016-10-25T07:02:15.038Z,925.19
2016-10-25T07:03:28.176Z,925.2
2016-10-25T07:04:41.226Z,925.16
2016-10-25T07:05:54.384Z,925.17
2016-10-25T07:07:06.898Z,925.14
2016-10-25T07:08:19.941Z,925.14
2016-10-25T07:09:33.006Z,925.08
2016-10-25T07:10:45.001Z,925.06
2016-10-25T07:11:58.598Z,925.05
2016-10-25T07:13:11.645Z,925.01
2016-10-25T07:14:24.628Z,925
2016-10-25T07:15:37.154Z,925.01
2016-10-25T07:16:49.745Z,925.04
2016-10-25T07:18:02.224Z,925.04
2016-10-25T07:19:15.337Z,925.08
2016-10-25T07:20:27.866Z,925.13
2016-10-25T07:21:40.881Z,925.14
2016-10-25T07:22:54.468Z,925.14
2016-10-25T07:24:08.055Z,925.17
2016-10-25T07:25:21.105Z,925.14
2016-10-25T07:26:33.115Z,925.13
2016-10-25T07:27:46.191Z,925.14
2016-10-25T07:28:59.202Z,925.11
2016-10-25T07:30:11.686Z,925.09
2016-10-25T07:31:24.759Z,925.09
2016-10-25T07:32:37.318Z,925.04
2016-10-25T07:33:49.855Z,925.04
2016-10-25T07:35:02.904Z,925.07
2016-10-25T07:36:16.498Z,925.1
2016-10-25T07:37:29.620Z,925.13
2016-10-25T07:38:43.176Z,925.16
2016-10-25T07:39:56.211Z,925.15
2016-10-25T07:41:09.221Z,925.17
2016-10-25T07:42:21.760Z,925.08
2016-10-25T07:43:34.359Z,925.19
2016-10-25T07:44:47.965Z,925.17
2016-10-25T07:46:00.499Z,925.15
2016-10-25T07:47:13.093Z,925.24
2016-10-25T07:48:26.102Z,925.23
2016-10-25T07:49:38.646Z,925.21
2016-10-25T07:50:51.141Z,925.19
2016-10-25T07:52:04.183Z,925.19
2016-10-25T07:53:17.257Z,925.17
2016-10-25T07:54:29.733Z,925.18
2016-10-25T07:55:42.207Z,925.1
2016-10-25T07:56:54.228Z,925.1
2016-10-25T07:58:08.051Z,925.12
2016-10-25T07:59:21.642Z,925.06
2016-10-25T08:00:34.648Z,924.99
2016-10-25T08:01:47.175Z,925
2016-10-25T08:03:00.217Z,925.04
2016-10-25T08:04:13.229Z,925.02
2016-10-25T08:05:26.198Z,925.04
2016-10-25T08:06:39.221Z,924.96
2016-10-25T08:07:52.292Z,924.96
2016-10-25T08:09:04.776Z,924.96
2016-10-25T08:10:17.850Z,924.93
2016-10-25T08:11:30.910Z,924.84
2016-10-25T08:12:44.006Z,924.81
2016-10-25T08:13:57.776Z,924.77
2016-10-25T08:15:09.792Z,924.74
2016-10-25T08:16:22.825Z,924.73
2016-10-25T08:17:35.853Z,924.74
2016-10-25T08:18:48.887Z,924.69
2016-10-25T08:20:01.445Z,924.72
2016-10-25T08:21:13.982Z,924.73
2016-10-25T08:22:26.987Z,924.76
2016-10-25T08:23:40.066Z,924.73
2016-10-25T08:24:52.581Z,924.81
2016-10-25T08:26:05.652Z,924.8
2016-10-25T08:27:18.234Z,924.8
2016-10-25T08:28:31.798Z,924.81
2016-10-25T08:29:44.278Z,924.83
2016-10-25T08:30:57.917Z,924.82
2016-10-25T08:32:09.904Z,924.82
2016-10-25T08:33:22.962Z,924.79
2016-10-25T08:34:35.433Z,924.82
2016-10-25T08:35:48.498Z,924.76
2016-10-25T08:37:02.096Z,924.82
2016-10-25T08:38:15.642Z,924.74
2016-10-25T08:39:28.682Z,924.73
2016-10-25T08:40:41.723Z,924.74
2016-10-25T08:41:53.698Z,924.76
2016-10-25T08:43:06.706Z,924.71
2016-10-25T08:44:19.791Z,924.75
2016-10-25T08:45:33.330Z,924.77
2016-10-25T08:46:45.326Z,924.8
2016-10-25T08:47:57.839Z,924.82
2016-10-25T08:49:09.343Z,924.79
2016-10-25T08:50:22.421Z,924.77
2016-10-25T08:51:35.508Z,924.77
2016-10-25T08:52:49.020Z,924.72
2016-10-25T08:54:02.112Z,924.68
2016-10-25T08:55:15.213Z,924.73
2016-10-25T08:56:27.834Z,924.66
2016-10-25T08:57:41.474Z,924.58
2016-10-25T08:58:54.513Z,924.51
2016-10-25T09:00:07.582Z,924.55
2016-10-25T09:01:21.190Z,924.51
2016-10-25T09:02:34.829Z,924.58
2016-10-25T09:03:48.389Z,924.62
2016-10-25T09:05:01.938Z,924.71
2016-10-25T09:06:13.925Z,924.77
2016-10-25T09:07:27.442Z,924.82
2016-10-25T09:08:41.025Z,924.85
2016-10-25T09:09:54.573Z,924.76
2016-10-25T09:11:07.659Z,924.79
2016-10-25T09:12:21.244Z,924.78
2016-10-25T09:13:33.846Z,924.79
2016-10-25T09:14:47.454Z,924.78
2016-10-25T09:15:59.399Z,924.73
2016-10-25T09:17:12.547Z,924.75
2016-10-25T09:18:25.582Z,924.67
2016-10-25T09:19:39.126Z,924.65
2016-10-25T09:20:51.634Z,924.62
2016-10-25T09:22:04.716Z,924.69
2016-10-25T09:23:18.321Z,924.65
2016-10-25T09:24:31.879Z,924.63
2016-10-25T09:25:45.531Z,924.67
2016-10-25T09:26:58.596Z,924.63
2016-10-25T09:28:11.144Z,924.59
2016-10-25T09:29:24.690Z,924.62
2016-10-25T09:30:37.774Z,924.62
2016-10-25T09:31:50.291Z,924.68
2016-10-25T09:33:02.296Z,924.63
2016-10-25T09:34:14.843Z,924.68
2016-10-25T09:35:28.460Z,924.74
2016-10-25T09:36:41.549Z,924.81
2016-10-25T09:37:54.607Z,924.59
2016-10-25T09:39:08.144Z,924.67
2016-10-25T09:40:20.747Z,924.63
2016-10-25T09:41:33.271Z,924.64
2016-10-25T09:42:45.757Z,924.68
2016-10-25T09:43:58.275Z,924.67
2016-10-25T09:45:11.402Z,924.61
2016-10-25T09:46:24.493Z,924.59
2016-10-25T09:47:36.452Z,924.62
2016-10-25T09:48:49.449Z,924.57
2016-10-25T09:50:01.944Z,924.66
2016-10-25T09:51:15.532Z,924.67
2016-10-25T09:52:28.612Z,924.69
2016-10-25T09:53:42.167Z,924.7
2016-10-25T09:54:55.220Z,924.78
2016-10-25T09:56:08.332Z,924.83
2016-10-25T09:57:21.382Z,924.78
2016-10-25T09:58:34.407Z,924.77
2016-10-25T09:59:46.401Z,924.81
2016-10-25T10:00:59.952Z,924.84
2016-10-25T10:02:12.975Z,924.87
2016-10-25T10:03:26.536Z,924.86
2016-10-25T10:04:40.121Z,924.89
2016-10-25T10:05:53.214Z,924.91
2016-10-25T10:07:06.275Z,924.93
2016-10-25T10:08:19.308Z,924.89
2016-10-25T10:09:32.355Z,924.89
2016-10-25T10:10:45.346Z,924.83
2016-10-25T10:11:57.803Z,924.85
2016-10-25T10:13:10.828Z,924.81
2016-10-25T10:14:22.280Z,924.85
2016-10-25T10:15:35.459Z,924.8
2016-10-25T10:16:47.924Z,924.81
2016-10-25T10:17:59.934Z,924.8
2016-10-25T10:19:11.412Z,924.82
2016-10-25T10:20:24.458Z,924.83
2016-10-25T10:21:37.529Z,924.85
2016-10-25T10:22:50.055Z,924.84
2016-10-25T10:24:03.688Z,924.83
2016-10-25T10:25:16.153Z,924.86
2016-10-25T10:26:29.239Z,924.91
2016-10-25T10:27:42.248Z,924.87
2016-10-25T10:28:55.789Z,924.92
2016-10-25T10:30:08.340Z,924.94
2016-10-25T10:31:21.886Z,924.99
2016-10-25T10:32:34.976Z,924.99
2016-10-25T10:33:48.091Z,925.03
2016-10-25T10:35:01.703Z,925.02
2016-10-25T10:36:15.326Z,925.02
2016-10-25T10:37:28.462Z,925.01
2016-10-25T10:38:41.522Z,925.03
2016-10-25T10:39:53.521Z,925.03
2016-10-25T10:41:06.048Z,925.07
2016-10-25T10:42:19.086Z,925.15
2016-10-25T10:43:32.117Z,925.14
2016-10-25T10:44:44.074Z,925.2
2016-10-25T10:45:57.116Z,925.26
2016-10-25T10:47:10.152Z,925.31
2016-10-25T10:48:23.757Z,925.29
2016-10-25T10:49:37.389Z,925.29
2016-10-25T10:50:50.444Z,925.26
2016-10-25T10:52:02.988Z,925.23
2016-10-25T10:53:16.041Z,925.29
2016-10-25T10:54:29.044Z,925.26
2016-10-25T10:55:41.526Z,925.31
2016-10-25T10:56:55.073Z,925.27
2016-10-25T10:58:08.070Z,925.23
2016-10-25T10:59:21.634Z,925.24
2016-10-25T11:00:35.210Z,925.28
2016-10-25T11:01:48.371Z,925.35
2016-10-25T11:03:01.410Z,925.3
2016-10-25T11:04:15.055Z,925.32
2016-10-25T11:05:28.140Z,925.34
2016-10-25T11:06:40.197Z,925.39
2016-10-25T11:07:53.779Z,925.42
2016-10-25T11:09:06.824Z,925.37
2016-10-25T11:10:19.380Z,925.42
2016-10-25T11:11:32.933Z,925.42
2016-10-25T11:12:46.589Z,925.47
2016-10-25T11:13:59.145Z,925.47
2016-10-25T11:15:12.757Z,925.48
2016-10-25T11:16:26.328Z,925.47
2016-10-25T11:17:39.923Z,925.47
2016-10-25T11:18:52.908Z,925.53
2016-10-25T11:20:05.988Z,925.58
2016-10-25T11:21:19.528Z,925.58
2016-10-25T11:22:31.566Z,925.57
2016-10-25T11:23:44.592Z,925.6
2016-10-25T11:24:58.221Z,925.57
2016-10-25T11:26:10.733Z,925.57
2016-10-25T11:27:23.850Z,925.6
2016-10-25T11:28:36.367Z,925.54
2016-10-25T11:29:49.478Z,925.57
2016-10-25T11:31:03.191Z,925.55
2016-10-25T11:32:16.837Z,925.57
2016-10-25T11:33:30.364Z,925.58
2016-10-25T11:34:43.471Z,925.61
2016-10-25T11:35:55.951Z,925.66
2016-10-25T11:37:09.039Z,925.62
2016-10-25T11:38:21.606Z,925.65
2016-10-25T11:39:34.692Z,925.63
2016-10-25T11:40:48.291Z,925.63
2016-10-25T11:42:01.846Z,925.67
2016-10-25T11:43:14.341Z,925.7
2016-10-25T11:44:26.938Z,925.72
2016-10-25T11:45:40.471Z,925.8
2016-10-25T11:46:54.089Z,925.79
2016-10-25T11:48:06.099Z,925.8
2016-10-25T11:49:18.602Z,925.84
2016-10-25T11:50:32.268Z,925.82
2016-10-25T11:51:45.404Z,925.82
2016-10-25T11:52:59.101Z,925.85
2016-10-25T11:54:12.145Z,925.84
2016-10-25T11:55:25.674Z,925.81
2016-10-25T11:56:37.671Z,925.78
2016-10-25T11:57:51.070Z,925.84
2016-10-25T11:59:04.113Z,925.88
2016-10-25T12:00:17.761Z,925.88
2016-10-25T12:01:31.347Z,925.88
2016-10-25T12:02:44.923Z,925.89
2016-10-25T12:05:42.644Z,925.82
2016-10-25T12:06:54.654Z,925.85
2016-10-25T12:08:06.716Z,925.89
2016-10-25T12:09:20.309Z,925.87
2016-10-25T12:10:33.351Z,925.93
2016-10-25T12:11:46.359Z,925.95
2016-10-25T12:12:59.401Z,925.97
2016-10-25T12:14:12.415Z,926.02
2016-10-25T12:15:25.958Z,926.01
2016-10-25T12:16:39.003Z,926.05
2016-10-25T12:17:52.626Z,926.07
2016-10-25T12:19:06.199Z,926.08
2016-10-25T12:20:19.763Z,926.12
2016-10-25T12:21:32.852Z,926.2
2016-10-25T12:22:45.952Z,926.18
2016-10-25T12:23:59.539Z,926.18
2016-10-25T12:25:12.594Z,926.23
2016-10-25T12:26:25.091Z,926.22
2016-10-25T12:27:37.596Z,926.21
2016-10-25T12:28:50.652Z,926.24
2016-10-25T12:30:03.780Z,926.26
2016-10-25T12:31:17.381Z,926.3
2016-10-25T12:32:29.935Z,926.29
2016-10-25T12:33:42.933Z,926.28
2016-10-25T12:34:54.941Z,926.3
2016-10-25T12:36:07.986Z,926.34
2016-10-25T12:37:21.024Z,926.35
2016-10-25T12:38:34.602Z,926.38
2016-10-25T12:39:47.688Z,926.33
2016-10-25T12:41:01.312Z,926.37
2016-10-25T12:42:14.353Z,926.35
2016-10-25T12:43:27.943Z,926.34
2016-10-25T12:44:40.977Z,926.37
2016-10-25T12:45:54.597Z,926.33
2016-10-25T12:47:07.615Z,926.34
2016-10-25T12:48:20.744Z,926.3
2016-10-25T12:49:33.804Z,926.38
2016-10-25T12:50:46.318Z,926.35
2016-10-25T12:51:59.325Z,926.33
2016-10-25T12:53:12.893Z,926.31
2016-10-25T12:54:23.816Z,926.35
2016-10-25T12:55:36.901Z,926.38
2016-10-25T12:56:50.485Z,926.38
2016-10-25T12:58:04.089Z,926.42
2016-10-25T12:59:17.674Z,926.46
2016-10-25T13:00:30.709Z,926.44
2016-10-25T13:01:44.293Z,926.45
2016-10-25T13:02:57.837Z,926.46
2016-10-25T13:04:10.873Z,926.47
2016-10-25T13:05:24.481Z,926.52
2016-10-25T13:06:37.001Z,926.54
2016-10-25T13:07:50.089Z,926.49
2016-10-25T13:09:03.656Z,926.53
2016-10-25T13:10:15.647Z,926.58
2016-10-25T13:11:28.698Z,926.58
2016-10-25T13:12:41.729Z,926.65
2016-10-25T13:13:54.788Z,926.65
2016-10-25T13:15:07.312Z,926.65
2016-10-25T13:16:20.846Z,926.71
2016-10-25T13:17:34.462Z,926.74
2016-10-25T13:18:48.055Z,926.74
2016-10-25T13:20:00.607Z,926.68
2016-10-25T13:21:13.698Z,926.71
2016-10-25T13:22:27.271Z,926.72
2016-10-25T13:23:40.313Z,926.71
2016-10-25T13:24:52.872Z,926.75
2016-10-25T13:26:05.396Z,926.7
2016-10-25T13:27:18.390Z,926.72
2016-10-25T13:28:31.474Z,926.66
2016-10-25T13:29:43.502Z,926.68
2016-10-25T13:30:56.549Z,926.69
2016-10-25T13:32:09.600Z,926.64
2016-10-25T13:33:22.616Z,926.66
2016-10-25T13:34:35.696Z,926.65
2016-10-25T13:35:48.743Z,926.66
2016-10-25T13:37:01.772Z,926.64
2016-10-25T13:38:14.354Z,926.62
2016-10-25T13:39:27.961Z,926.64
2016-10-25T13:40:41.534Z,926.57
2016-10-25T13:41:53.518Z,926.54
2016-10-25T13:43:07.080Z,926.54
2016-10-25T13:44:20.166Z,926.48
2016-10-25T13:45:33.753Z,926.47
2016-10-25T13:46:47.377Z,926.42
2016-10-25T13:47:59.896Z,926.41
2016-10-25T13:49:12.431Z,926.43
2016-10-25T13:50:24.968Z,926.44
2016-10-25T13:51:38.013Z,926.42
2016-10-25T13:52:51.031Z,926.42
2016-10-25T13:54:04.063Z,926.47
2016-10-25T13:55:17.054Z,926.44
2016-10-25T13:56:30.078Z,926.42
2016-10-25T13:57:43.654Z,926.43
2016-10-25T13:58:56.698Z,926.37
2016-10-25T14:00:10.334Z,926.39
2016-10-25T14:01:22.907Z,926.38
2016-10-25T14:02:35.961Z,926.33
2016-10-25T14:03:49.557Z,926.37
2016-10-25T14:05:02.610Z,926.33
2016-10-25T14:06:14.636Z,926.36
2016-10-25T14:07:28.224Z,926.34
2016-10-25T14:08:41.797Z,926.31
2016-10-25T14:09:55.350Z,926.29
2016-10-25T14:11:08.378Z,926.23
2016-10-25T14:12:21.947Z,926.18
2016-10-25T14:13:34.984Z,926.19
2016-10-25T14:14:48.065Z,926.21
2016-10-25T14:16:00.697Z,926.17
2016-10-25T14:17:13.255Z,926.16
2016-10-25T14:18:26.296Z,926.14
2016-10-25T14:19:39.903Z,926.1
2016-10-25T14:20:53.468Z,926.07
2016-10-25T14:22:07.046Z,926.06
2016-10-25T14:23:20.095Z,926.02
2016-10-25T14:24:33.127Z,926
2016-10-25T14:25:46.244Z,925.95
2016-10-25T14:26:59.310Z,925.89
2016-10-25T14:28:12.334Z,925.89
2016-10-25T14:29:25.931Z,925.92
2016-10-25T14:30:38.438Z,925.93
2016-10-25T14:31:52.022Z,925.87
2016-10-25T14:33:05.047Z,925.89
2016-10-25T14:34:18.138Z,925.89
2016-10-25T14:35:30.621Z,925.88
2016-10-25T14:36:43.730Z,925.85
2016-10-25T14:37:56.792Z,925.86
2016-10-25T14:39:08.822Z,925.83
2016-10-25T14:40:21.864Z,925.82
2016-10-25T14:41:34.359Z,925.76
2016-10-25T14:42:46.353Z,925.76
2016-10-25T14:43:58.896Z,925.73
2016-10-25T14:45:11.915Z,925.67
2016-10-25T14:46:24.477Z,925.58
2016-10-25T14:47:38.030Z,925.56
2016-10-25T14:48:50.587Z,925.57
2016-10-25T14:50:03.095Z,925.56
2016-10-25T14:51:15.673Z,925.53
2016-10-25T14:52:28.730Z,925.5
2016-10-25T14:53:42.324Z,925.47
2016-10-25T14:54:55.343Z,925.48
2016-10-25T14:56:08.371Z,925.43
2016-10-25T14:57:21.392Z,925.36
2016-10-25T14:58:34.553Z,925.36
2016-10-25T14:59:47.087Z,925.31
2016-10-25T15:01:00.247Z,925.34
2016-10-25T15:02:13.197Z,925.34
2016-10-25T15:03:26.760Z,925.36
2016-10-25T15:04:39.780Z,925.37
2016-10-25T15:05:52.809Z,925.35
2016-10-25T15:07:05.329Z,925.31
2016-10-25T15:08:18.374Z,925.31
2016-10-25T15:09:30.909Z,925.29
2016-10-25T15:10:43.984Z,925.35
2016-10-25T15:11:57.567Z,925.35
2016-10-25T15:13:10.149Z,925.35
2016-10-25T15:14:23.235Z,925.36
2016-10-25T15:15:35.223Z,925.38
2016-10-25T15:16:48.223Z,925.37
2016-10-25T15:18:00.748Z,925.38
2016-10-25T15:19:14.294Z,925.33
2016-10-25T15:20:27.373Z,925.32